createdAt,value
2023-03-01T00:00:51.581Z,23.75
2023-03-01T00:02:23.528Z,23.70
2023-03-01T00:03:56.226Z,24.10
2023-03-01T00:05:27.971Z,25.15
2023-03-01T00:06:59.767Z,24.70
2023-03-01T00:08:32.067Z,23.98
2023-03-01T00:10:04.587Z,25.92
2023-03-01T00:11:36.311Z,21.48
2023-03-01T00:13:08.390Z,24.05
2023-03-01T00:14:40.402Z,24.98
2023-03-01T00:16:16.787Z,24.42
2023-03-01T00:17:48.570Z,26.42
2023-03-01T00:19:20.988Z,24.25
2023-03-01T00:20:54.032Z,26.08
2023-03-01T00:22:28.605Z,25.02
2023-03-01T00:24:00.347Z,23.55
2023-03-01T00:25:32.059Z,27.63
2023-03-01T00:27:03.972Z,26.40
2023-03-01T00:28:35.955Z,28.95
2023-03-01T00:30:08.531Z,26.35
2023-03-01T00:31:40.282Z,25.95
2023-03-01T00:33:12.799Z,25.63
2023-03-01T00:34:55.034Z,26.65
2023-03-01T00:36:30.104Z,26.08
2023-03-01T00:38:02.626Z,25.65
2023-03-01T00:39:34.744Z,29.58
2023-03-01T00:41:15.948Z,28.35
2023-03-01T00:42:47.652Z,27.48
2023-03-01T00:44:19.392Z,29.38
2023-03-01T00:45:51.137Z,28.67
2023-03-01T00:47:22.864Z,27.75
2023-03-01T00:48:58.020Z,27.77
2023-03-01T00:50:29.785Z,27.45
2023-03-01T00:52:01.513Z,26.42
2023-03-01T00:53:33.607Z,26.23
2023-03-01T00:55:06.145Z,24.80
2023-03-01T00:56:37.862Z,24.88
2023-03-01T00:58:09.580Z,23.52
2023-03-01T00:59:41.283Z,23.15
2023-03-01T01:01:18.874Z,25.33
2023-03-01T01:02:50.634Z,25.35
2023-03-01T01:04:23.559Z,26.67
2023-03-01T01:05:55.415Z,25.05
2023-03-01T01:07:27.181Z,23.92
2023-03-01T01:08:59.709Z,23.98
2023-03-01T01:10:31.417Z,24.70
2023-03-01T01:12:03.818Z,23.98
2023-03-01T01:13:35.531Z,24.88
2023-03-01T01:15:07.692Z,23.73
2023-03-01T01:16:40.165Z,23.58
2023-03-01T01:18:11.921Z,23.35
2023-03-01T01:19:44.509Z,27.08
2023-03-01T01:21:18.834Z,25.60
2023-03-01T01:22:50.614Z,23.98
2023-03-01T01:24:22.330Z,25.55
2023-03-01T01:25:54.346Z,24.75
2023-03-01T01:27:26.587Z,25.38
2023-03-01T01:28:58.634Z,24.50
2023-03-01T01:30:30.381Z,24.38
2023-03-01T01:32:02.120Z,24.00
2023-03-01T01:33:34.716Z,25.70
2023-03-01T01:35:06.562Z,27.35
2023-03-01T01:36:38.516Z,26.67
2023-03-01T01:38:10.281Z,27.88
2023-03-01T01:39:42.092Z,27.08
2023-03-01T01:41:14.566Z,26.20
2023-03-01T01:42:46.556Z,24.55
2023-03-01T01:44:25.665Z,24.83
2023-03-01T01:46:16.995Z,26.45
2023-03-01T01:47:49.648Z,23.20
2023-03-01T01:49:55.525Z,23.48
2023-03-01T01:51:39.792Z,22.25
2023-03-01T01:53:17.521Z,24.98
2023-03-01T01:55:19.963Z,24.02
2023-03-01T01:56:58.038Z,22.98
2023-03-01T01:58:31.502Z,22.17
2023-03-01T02:00:16.672Z,24.20
2023-03-01T02:01:49.190Z,25.48
2023-03-01T02:03:30.226Z,21.70
2023-03-01T02:05:18.705Z,23.60
2023-03-01T02:06:58.992Z,22.75
2023-03-01T02:08:34.448Z,23.80
2023-03-01T02:10:07.941Z,23.58
2023-03-01T02:11:40.352Z,23.50
2023-03-01T02:13:13.618Z,22.58
2023-03-01T02:14:45.427Z,25.10
2023-03-01T02:16:18.551Z,24.05
2023-03-01T02:17:50.563Z,25.52
2023-03-01T02:20:08.426Z,24.10
2023-03-01T02:21:54.244Z,26.35
2023-03-01T02:23:26.714Z,24.02
2023-03-01T02:25:01.893Z,23.27
2023-03-01T02:26:48.627Z,23.75
2023-03-01T02:28:26.930Z,23.20
2023-03-01T02:29:58.737Z,24.05
2023-03-01T02:31:42.617Z,22.42
2023-03-01T02:33:14.519Z,24.20
2023-03-01T02:34:46.384Z,21.00
2023-03-01T02:36:21.916Z,22.08
2023-03-01T02:37:53.617Z,23.48
2023-03-01T02:39:30.361Z,22.77
2023-03-01T02:41:05.700Z,24.90
2023-03-01T02:42:47.075Z,23.38
2023-03-01T02:45:52.397Z,25.23
2023-03-01T02:47:24.400Z,28.35
2023-03-01T02:48:59.506Z,26.05
2023-03-01T02:50:31.230Z,23.55
2023-03-01T02:52:44.096Z,22.90
2023-03-01T02:54:26.689Z,22.50
2023-03-01T02:55:58.472Z,23.92
2023-03-01T02:57:32.682Z,24.92
2023-03-01T02:59:05.243Z,24.10
2023-03-01T03:00:41.293Z,23.73
2023-03-01T03:02:37.277Z,24.83
2023-03-01T03:04:25.480Z,24.80
2023-03-01T03:05:57.216Z,27.25
2023-03-01T03:07:29.029Z,24.50
2023-03-01T03:09:01.480Z,24.83
2023-03-01T03:10:36.968Z,22.00
2023-03-01T03:12:08.936Z,24.38
2023-03-01T03:13:49.160Z,27.20
2023-03-01T03:15:23.135Z,25.00
2023-03-01T03:16:54.845Z,25.50
2023-03-01T03:18:27.462Z,24.08
2023-03-01T03:20:02.222Z,26.50
2023-03-01T03:21:34.805Z,23.17
2023-03-01T03:23:06.576Z,23.60
2023-03-01T03:24:39.284Z,25.15
2023-03-01T03:26:14.423Z,24.25
2023-03-01T03:27:48.324Z,22.00
2023-03-01T03:29:20.051Z,24.17
2023-03-01T03:30:52.142Z,21.63
2023-03-01T03:32:23.913Z,21.52
2023-03-01T03:33:55.819Z,19.67
2023-03-01T03:35:33.871Z,22.75
2023-03-01T03:37:25.861Z,20.10
2023-03-01T03:38:58.162Z,20.88
2023-03-01T03:40:32.832Z,20.90
2023-03-01T03:42:04.553Z,20.92
2023-03-01T03:43:38.322Z,20.33
2023-03-01T03:45:10.130Z,22.17
2023-03-01T03:46:41.884Z,22.08
2023-03-01T03:48:13.656Z,25.08
2023-03-01T03:49:45.398Z,21.88
2023-03-01T03:51:18.966Z,22.48
2023-03-01T03:52:51.062Z,22.15
2023-03-01T03:54:22.780Z,22.25
2023-03-01T03:55:54.777Z,23.38
2023-03-01T03:57:26.504Z,24.75
2023-03-01T03:58:58.241Z,24.05
2023-03-01T04:00:30.102Z,22.35
2023-03-01T04:02:01.851Z,23.85
2023-03-01T04:03:36.120Z,23.15
2023-03-01T04:05:10.447Z,25.63
2023-03-01T04:06:42.141Z,25.17
2023-03-01T04:08:14.817Z,24.70
2023-03-01T04:09:46.562Z,26.98
2023-03-01T04:11:27.411Z,26.63
2023-03-01T04:12:59.576Z,24.65
2023-03-01T04:14:31.297Z,23.95
2023-03-01T04:16:03.147Z,24.88
2023-03-01T04:17:35.159Z,26.95
2023-03-01T04:19:07.517Z,24.67
2023-03-01T04:20:39.979Z,24.27
2023-03-01T04:22:12.505Z,23.23
2023-03-01T04:23:44.529Z,23.25
2023-03-01T04:25:16.266Z,24.55
2023-03-01T04:26:47.970Z,23.50
2023-03-01T04:28:19.949Z,22.35
2023-03-01T04:29:51.708Z,25.23
2023-03-01T04:31:23.532Z,24.50
2023-03-01T04:32:55.305Z,26.88
2023-03-01T04:34:27.923Z,26.13
2023-03-01T04:35:59.742Z,25.88
2023-03-01T04:37:31.584Z,27.15
2023-03-01T04:39:13.324Z,23.55
2023-03-01T04:40:45.310Z,24.08
2023-03-01T04:42:17.858Z,23.83
2023-03-01T04:43:50.282Z,24.65
2023-03-01T04:45:22.300Z,24.02
2023-03-01T04:46:54.089Z,24.33
2023-03-01T04:48:25.859Z,23.35
2023-03-01T04:49:57.615Z,24.08
2023-03-01T04:51:30.038Z,24.83
2023-03-01T04:53:01.798Z,26.08
2023-03-01T04:54:35.640Z,25.67
2023-03-01T04:56:07.644Z,24.58
2023-03-01T04:57:39.716Z,23.23
2023-03-01T04:59:13.683Z,23.25
2023-03-01T05:00:45.455Z,23.23
2023-03-01T05:02:17.169Z,22.27
2023-03-01T05:03:53.100Z,24.25
2023-03-01T05:05:32.188Z,25.15
2023-03-01T05:07:03.916Z,22.85
2023-03-01T05:08:38.078Z,26.13
2023-03-01T05:10:10.337Z,24.85
2023-03-01T05:11:42.085Z,26.95
2023-03-01T05:13:21.751Z,21.95
2023-03-01T05:14:53.635Z,22.23
2023-03-01T05:16:25.746Z,22.10
2023-03-01T05:18:00.262Z,24.55
2023-03-01T05:19:32.489Z,22.02
2023-03-01T05:21:13.490Z,22.58
2023-03-01T05:22:45.430Z,22.45
2023-03-01T05:24:17.151Z,23.10
2023-03-01T05:25:49.131Z,21.50
2023-03-01T05:27:23.210Z,22.52
2023-03-01T05:29:00.534Z,23.85
2023-03-01T05:30:34.060Z,22.33
2023-03-01T05:32:05.892Z,23.02
2023-03-01T05:33:39.179Z,23.30
2023-03-01T05:35:16.048Z,23.08
2023-03-01T05:36:47.800Z,21.67
2023-03-01T05:38:19.627Z,24.95
2023-03-01T05:39:51.483Z,24.83
2023-03-01T05:41:23.190Z,22.45
2023-03-01T05:42:57.323Z,22.17
2023-03-01T05:44:30.072Z,22.55
2023-03-01T05:46:01.895Z,22.80
2023-03-01T05:47:33.676Z,21.70
2023-03-01T05:49:05.490Z,23.33
2023-03-01T05:50:40.904Z,23.05
2023-03-01T05:52:12.617Z,25.15
2023-03-01T05:53:44.346Z,24.50
2023-03-01T05:55:18.720Z,24.30
2023-03-01T05:56:50.475Z,27.00
2023-03-01T05:58:22.801Z,24.23
2023-03-01T05:59:54.572Z,26.88
2023-03-01T06:01:26.606Z,25.73
2023-03-01T06:02:59.620Z,24.92
2023-03-01T06:04:31.731Z,26.20
2023-03-01T06:06:03.623Z,26.02
2023-03-01T06:07:36.170Z,28.10
2023-03-01T06:09:10.278Z,27.88
2023-03-01T06:10:42.385Z,26.63
2023-03-01T06:12:14.124Z,23.98
2023-03-01T06:13:46.218Z,23.38
2023-03-01T06:15:18.294Z,25.90
2023-03-01T06:16:50.034Z,24.13
2023-03-01T06:18:22.047Z,24.15
2023-03-01T06:19:53.774Z,26.27
2023-03-01T06:21:26.655Z,24.27
2023-03-01T06:22:59.438Z,26.48
2023-03-01T06:24:31.211Z,24.63
2023-03-01T06:26:08.175Z,24.27
2023-03-01T06:27:41.026Z,21.70
2023-03-01T06:29:12.811Z,24.42
2023-03-01T06:30:44.752Z,23.65
2023-03-01T06:32:16.534Z,24.20
2023-03-01T06:33:48.268Z,23.60
2023-03-01T06:35:20.425Z,23.25
2023-03-01T06:36:52.291Z,22.50
2023-03-01T06:38:25.189Z,21.85
2023-03-01T06:39:57.054Z,23.90
2023-03-01T06:41:28.752Z,21.30
2023-03-01T06:43:00.657Z,22.45
2023-03-01T06:44:32.482Z,23.08
2023-03-01T06:46:10.694Z,24.65
2023-03-01T06:47:42.559Z,22.98
2023-03-01T06:49:14.295Z,26.58
2023-03-01T06:50:46.204Z,24.02
2023-03-01T06:52:17.993Z,24.27
2023-03-01T06:53:49.810Z,23.90
2023-03-01T06:55:21.520Z,23.02
2023-03-01T06:56:53.233Z,21.98
2023-03-01T06:58:25.024Z,22.25
2023-03-01T06:59:56.880Z,23.25
2023-03-01T07:01:28.637Z,21.67
2023-03-01T07:03:03.114Z,22.67
2023-03-01T07:04:35.118Z,21.63
2023-03-01T07:06:07.155Z,21.40
2023-03-01T07:07:38.925Z,21.70
2023-03-01T07:09:10.627Z,19.58
2023-03-01T07:10:42.352Z,21.80
2023-03-01T07:12:14.356Z,21.67
2023-03-01T07:13:46.072Z,22.30
2023-03-01T07:15:18.042Z,22.92
2023-03-01T07:16:49.749Z,21.02
2023-03-01T07:18:22.108Z,21.20
2023-03-01T07:19:53.864Z,22.02
2023-03-01T07:21:25.632Z,23.02
2023-03-01T07:22:59.644Z,23.02
2023-03-01T07:24:31.434Z,22.58
2023-03-01T07:26:03.332Z,24.25
2023-03-01T07:27:35.362Z,22.67
2023-03-01T07:29:10.648Z,24.23
2023-03-01T07:30:42.397Z,22.33
2023-03-01T07:32:14.181Z,23.13
2023-03-01T07:33:48.733Z,23.30
2023-03-01T07:35:20.468Z,22.45
2023-03-01T07:36:52.557Z,24.48
2023-03-01T07:38:24.418Z,23.25
2023-03-01T07:39:56.113Z,23.27
2023-03-01T07:41:27.905Z,23.00
2023-03-01T07:43:00.343Z,24.02
2023-03-01T07:44:32.049Z,23.60
2023-03-01T07:46:04.707Z,24.08
2023-03-01T07:47:36.827Z,23.20
2023-03-01T07:49:08.556Z,24.95
2023-03-01T07:50:40.285Z,25.02
2023-03-01T07:52:13.019Z,27.13
2023-03-01T07:53:48.029Z,26.73
2023-03-01T07:55:21.116Z,23.83
2023-03-01T07:56:52.985Z,23.60
2023-03-01T07:58:24.721Z,24.90
2023-03-01T07:59:56.437Z,25.50
2023-03-01T08:01:28.278Z,24.52
2023-03-01T08:03:01.896Z,24.27
2023-03-01T08:04:34.302Z,26.42
2023-03-01T08:06:08.815Z,26.50
2023-03-01T08:07:40.695Z,22.70
2023-03-01T08:09:12.439Z,25.70
2023-03-01T08:10:44.157Z,24.02
2023-03-01T08:12:17.941Z,25.77
2023-03-01T08:13:51.528Z,28.20
2023-03-01T08:15:25.038Z,24.40
2023-03-01T08:16:56.829Z,23.17
2023-03-01T08:18:28.733Z,21.67
2023-03-01T08:20:00.601Z,23.65
2023-03-01T08:21:32.492Z,26.65
2023-03-01T08:23:04.228Z,26.48
2023-03-01T08:24:35.966Z,25.67
2023-03-01T08:26:10.625Z,23.05
2023-03-01T08:27:42.364Z,24.27
2023-03-01T08:29:14.125Z,24.23
2023-03-01T08:30:45.852Z,24.02
2023-03-01T08:32:17.741Z,22.55
2023-03-01T08:33:56.018Z,24.30
2023-03-01T08:35:27.800Z,21.77
2023-03-01T08:36:59.540Z,23.25
2023-03-01T08:38:31.405Z,29.23
2023-03-01T08:40:04.822Z,25.52
2023-03-01T08:41:37.287Z,24.75
2023-03-01T08:43:09.097Z,26.90
2023-03-01T08:44:40.837Z,25.05
2023-03-01T08:46:12.955Z,26.38
2023-03-01T08:47:45.583Z,25.92
2023-03-01T08:49:18.842Z,24.80
2023-03-01T08:50:50.587Z,26.92
2023-03-01T08:52:22.521Z,24.10
2023-03-01T08:53:54.979Z,24.30
2023-03-01T08:55:26.717Z,25.13
2023-03-01T08:57:00.138Z,24.02
2023-03-01T08:58:33.062Z,24.80
2023-03-01T09:00:09.487Z,25.27
2023-03-01T09:01:44.362Z,23.50
2023-03-01T09:03:16.102Z,28.65
2023-03-01T09:04:48.515Z,27.70
2023-03-01T09:06:20.618Z,25.02
2023-03-01T09:07:52.409Z,25.15
2023-03-01T09:09:24.185Z,27.80
2023-03-01T09:10:56.192Z,24.30
2023-03-01T09:12:27.943Z,26.73
2023-03-01T09:13:59.768Z,26.13
2023-03-01T09:15:31.521Z,27.70
2023-03-01T09:17:04.161Z,23.70
2023-03-01T09:18:36.847Z,27.83
2023-03-01T09:20:11.865Z,28.50
2023-03-01T09:21:53.102Z,26.13
2023-03-01T09:23:24.859Z,23.15
2023-03-01T09:24:57.639Z,26.55
2023-03-01T09:26:29.869Z,25.50
2023-03-01T09:28:02.116Z,28.25
2023-03-01T09:29:33.828Z,26.02
2023-03-01T09:31:06.147Z,26.02
2023-03-01T09:32:37.912Z,27.77
2023-03-01T09:34:10.036Z,27.55
2023-03-01T09:35:47.918Z,27.08
2023-03-01T09:37:19.655Z,27.02
2023-03-01T09:38:51.472Z,24.60
2023-03-01T09:40:27.548Z,24.38
2023-03-01T09:42:03.329Z,30.65
2023-03-01T09:43:56.889Z,27.05
2023-03-01T09:45:36.127Z,26.13
2023-03-01T09:47:18.821Z,25.13
2023-03-01T09:48:56.421Z,25.77
2023-03-01T09:50:36.286Z,26.27
2023-03-01T09:52:47.549Z,26.70
2023-03-01T09:54:19.275Z,23.75
2023-03-01T09:56:03.238Z,26.85
2023-03-01T09:57:46.957Z,25.17
2023-03-01T09:59:29.119Z,26.33
2023-03-01T10:01:11.346Z,26.13
2023-03-01T10:03:00.978Z,27.42
2023-03-01T10:04:50.984Z,27.02
2023-03-01T10:06:34.903Z,23.35
2023-03-01T10:08:32.298Z,23.58
2023-03-01T10:10:15.960Z,23.08
2023-03-01T10:11:51.402Z,21.50
2023-03-01T10:13:39.112Z,24.45
2023-03-01T10:15:23.535Z,21.45
2023-03-01T10:17:04.004Z,23.75
2023-03-01T10:18:37.867Z,23.45
2023-03-01T10:20:17.845Z,23.77
2023-03-01T10:21:51.956Z,21.98
2023-03-01T10:23:25.628Z,20.60
2023-03-01T10:25:03.284Z,21.45
2023-03-01T10:26:52.858Z,19.42
2023-03-01T10:28:35.816Z,25.77
2023-03-01T10:30:43.143Z,21.90
2023-03-01T10:32:16.191Z,19.98
2023-03-01T10:33:49.076Z,19.95
2023-03-01T10:35:24.941Z,22.27
2023-03-01T10:37:02.145Z,22.38
2023-03-01T10:38:50.749Z,19.63
2023-03-01T10:40:23.248Z,18.20
2023-03-01T10:41:58.719Z,17.15
2023-03-01T10:43:49.070Z,18.65
2023-03-01T10:45:38.379Z,17.85
2023-03-01T10:47:28.237Z,19.67
2023-03-01T10:49:19.493Z,22.92
2023-03-01T10:51:07.871Z,19.55
2023-03-01T10:52:42.437Z,17.80
2023-03-01T10:54:23.162Z,19.05
2023-03-01T10:56:08.192Z,21.40
2023-03-01T10:57:43.757Z,21.52
2023-03-01T10:59:31.633Z,19.92
2023-03-01T11:01:28.279Z,19.50
2023-03-01T11:03:00.250Z,18.17
2023-03-01T11:04:32.078Z,16.88
2023-03-01T11:06:08.807Z,18.77
2023-03-01T11:07:50.842Z,17.48
2023-03-01T11:09:25.131Z,16.55
2023-03-01T11:11:13.037Z,15.55
2023-03-01T11:12:44.810Z,15.63
2023-03-01T11:14:26.774Z,15.88
2023-03-01T11:16:07.491Z,14.95
2023-03-01T11:17:53.754Z,19.45
2023-03-01T11:19:27.466Z,16.52
2023-03-01T11:21:03.214Z,17.90
2023-03-01T11:22:36.540Z,19.38
2023-03-01T11:24:13.226Z,17.55
2023-03-01T11:25:52.696Z,16.27
2023-03-01T11:27:30.733Z,17.55
2023-03-01T11:29:08.310Z,15.40
2023-03-01T11:31:05.578Z,16.92
2023-03-01T11:32:46.936Z,16.58
2023-03-01T11:34:38.542Z,14.90
2023-03-01T11:38:02.783Z,15.80
2023-03-01T11:40:00.819Z,16.40
2023-03-01T11:41:37.624Z,16.85
2023-03-01T11:43:28.537Z,17.70
2023-03-01T11:45:07.138Z,17.92
2023-03-01T11:46:47.723Z,17.70
2023-03-01T11:48:49.848Z,16.33
2023-03-01T11:50:45.473Z,17.58
2023-03-01T11:52:31.445Z,15.98
2023-03-01T11:54:32.172Z,15.13
2023-03-01T11:56:18.830Z,15.63
2023-03-01T11:58:19.565Z,14.05
2023-03-01T12:00:12.739Z,14.77
2023-03-01T12:02:22.375Z,15.18
2023-03-01T12:04:12.264Z,13.20
2023-03-01T12:06:04.383Z,13.48
2023-03-01T12:08:06.996Z,13.63
2023-03-01T12:10:20.420Z,14.73
2023-03-01T12:12:23.119Z,13.77
2023-03-01T12:14:18.978Z,16.45
2023-03-01T12:16:16.240Z,12.52
2023-03-01T12:18:26.572Z,14.20
2023-03-01T12:20:43.218Z,15.82
2023-03-01T12:22:36.912Z,13.60
2023-03-01T12:24:32.525Z,14.20
2023-03-01T12:26:44.414Z,13.02
2023-03-01T12:30:23.603Z,14.70
2023-03-01T12:32:10.421Z,15.35
2023-03-01T12:34:02.118Z,14.38
2023-03-01T12:37:18.955Z,17.58
2023-03-01T12:38:51.790Z,16.85
2023-03-01T12:40:29.710Z,15.38
2023-03-01T12:42:25.683Z,14.02
2023-03-01T12:44:15.957Z,15.13
2023-03-01T12:46:00.873Z,16.50
2023-03-01T12:47:52.619Z,14.70
2023-03-01T12:49:34.579Z,14.18
2023-03-01T12:51:11.839Z,17.77
2023-03-01T12:52:50.605Z,14.73
2023-03-01T12:54:29.507Z,14.85
2023-03-01T12:56:11.081Z,14.40
2023-03-01T12:57:50.978Z,16.08
2023-03-01T12:59:37.576Z,16.15
2023-03-01T13:01:27.854Z,13.90
2023-03-01T13:03:08.427Z,12.98
2023-03-01T13:05:01.456Z,13.53
2023-03-01T13:07:03.660Z,15.10
2023-03-01T13:09:01.497Z,13.82
2023-03-01T13:10:50.892Z,14.35
2023-03-01T13:12:47.667Z,15.77
2023-03-01T13:14:22.578Z,16.98
2023-03-01T13:15:54.953Z,15.15
2023-03-01T13:17:41.074Z,13.80
2023-03-01T13:19:26.326Z,17.40
2023-03-01T13:21:00.542Z,15.75
2023-03-01T13:22:38.088Z,16.02
2023-03-01T13:24:38.314Z,16.00
2023-03-01T13:26:18.654Z,12.90
2023-03-01T13:27:50.431Z,14.57
2023-03-01T13:29:28.433Z,15.27
2023-03-01T13:31:00.223Z,13.30
2023-03-01T13:32:43.618Z,15.80
2023-03-01T13:34:47.263Z,15.20
2023-03-01T13:36:32.624Z,17.15
2023-03-01T13:38:42.341Z,16.42
2023-03-01T13:40:17.716Z,15.48
2023-03-01T13:41:52.606Z,14.60
2023-03-01T13:43:31.473Z,17.50
2023-03-01T13:45:04.631Z,13.90
2023-03-01T13:46:36.791Z,16.25
2023-03-01T13:48:30.620Z,14.57
2023-03-01T13:50:05.327Z,14.73
2023-03-01T13:51:37.567Z,14.55
2023-03-01T13:53:18.405Z,14.48
2023-03-01T13:54:50.409Z,15.93
2023-03-01T13:56:37.893Z,14.50
2023-03-01T13:58:26.369Z,13.88
2023-03-01T13:59:58.091Z,14.50
2023-03-01T14:01:35.490Z,15.57
2023-03-01T14:03:14.615Z,15.55
2023-03-01T14:04:57.970Z,13.07
2023-03-01T14:06:32.880Z,14.25
2023-03-01T14:08:05.747Z,14.00
2023-03-01T14:09:43.106Z,14.00
2023-03-01T14:11:25.247Z,13.73
2023-03-01T14:13:18.292Z,14.38
2023-03-01T14:15:00.681Z,15.57
2023-03-01T14:16:53.927Z,13.48
2023-03-01T14:18:56.709Z,15.55
2023-03-01T14:20:31.937Z,14.57
2023-03-01T14:22:20.551Z,14.32
2023-03-01T14:23:53.457Z,14.38
2023-03-01T14:25:39.855Z,13.93
2023-03-01T14:27:14.172Z,14.75
2023-03-01T14:28:45.895Z,12.55
2023-03-01T14:30:26.484Z,14.52
2023-03-01T14:32:10.050Z,13.70
2023-03-01T14:33:42.502Z,12.90
2023-03-01T14:35:27.004Z,13.77
2023-03-01T14:37:11.339Z,14.18
2023-03-01T14:38:48.427Z,14.43
2023-03-01T14:40:40.678Z,12.07
2023-03-01T14:42:15.925Z,11.88
2023-03-01T14:43:52.130Z,11.05
2023-03-01T14:45:26.430Z,13.13
2023-03-01T14:46:58.565Z,14.90
2023-03-01T14:48:32.154Z,14.55
2023-03-01T14:50:34.910Z,12.02
2023-03-01T14:52:17.838Z,13.82
2023-03-01T14:53:51.583Z,13.75
2023-03-01T14:55:30.395Z,13.95
2023-03-01T14:57:02.413Z,13.13
2023-03-01T14:58:34.584Z,13.77
2023-03-01T15:00:08.040Z,13.45
2023-03-01T15:01:42.691Z,15.73
2023-03-01T15:03:21.795Z,13.57
2023-03-01T15:04:58.527Z,13.18
2023-03-01T15:06:31.295Z,13.55
2023-03-01T15:08:05.121Z,12.98
2023-03-01T15:09:38.112Z,12.40
2023-03-01T15:11:23.846Z,14.80
2023-03-01T15:12:56.302Z,13.15
2023-03-01T15:14:45.685Z,13.80
2023-03-01T15:16:35.176Z,13.85
2023-03-01T15:18:28.673Z,12.32
2023-03-01T15:20:01.444Z,11.88
2023-03-01T15:21:36.249Z,12.27
2023-03-01T15:23:31.298Z,15.55
2023-03-01T15:25:03.161Z,13.10
2023-03-01T15:26:41.730Z,13.32
2023-03-01T15:28:21.640Z,14.55
2023-03-01T15:29:58.708Z,13.90
2023-03-01T15:31:37.110Z,13.10
2023-03-01T15:33:30.593Z,16.38
2023-03-01T15:35:42.941Z,13.88
2023-03-01T15:37:42.712Z,13.57
2023-03-01T15:39:34.121Z,13.70
2023-03-01T15:41:23.695Z,11.65
2023-03-01T15:42:55.412Z,11.57
2023-03-01T15:44:42.817Z,12.98
2023-03-01T15:46:23.053Z,11.90
2023-03-01T15:48:04.513Z,12.30
2023-03-01T15:49:54.576Z,12.77
2023-03-01T15:51:37.848Z,12.55
2023-03-01T15:53:15.456Z,13.02
2023-03-01T15:54:47.281Z,12.60
2023-03-01T15:56:19.022Z,12.13
2023-03-01T15:57:51.402Z,13.30
2023-03-01T15:59:23.428Z,13.60
2023-03-01T16:01:02.501Z,12.88
2023-03-01T16:02:34.517Z,12.95
2023-03-01T16:04:06.367Z,11.13
2023-03-01T16:05:38.863Z,12.63
2023-03-01T16:07:10.963Z,12.65
2023-03-01T16:08:42.887Z,10.98
2023-03-01T16:10:14.779Z,11.73
2023-03-01T16:11:46.530Z,12.25
2023-03-01T16:13:18.833Z,11.93
2023-03-01T16:14:51.432Z,13.57
2023-03-01T16:16:23.740Z,12.07
2023-03-01T16:17:55.602Z,11.15
2023-03-01T16:19:27.331Z,12.68
2023-03-01T16:20:59.108Z,10.98
2023-03-01T16:22:30.916Z,11.02
2023-03-01T16:24:02.667Z,11.77
2023-03-01T16:25:36.250Z,12.07
2023-03-01T16:27:08.196Z,13.05
2023-03-01T16:28:41.745Z,11.93
2023-03-01T16:30:15.815Z,10.57
2023-03-01T16:31:47.864Z,10.43
2023-03-01T16:33:27.600Z,10.20
2023-03-01T16:35:04.520Z,11.85
2023-03-01T16:36:36.310Z,12.52
2023-03-01T16:38:08.079Z,12.93
2023-03-01T16:39:39.894Z,13.10
2023-03-01T16:41:17.174Z,12.73
2023-03-01T16:42:50.058Z,11.90
2023-03-01T16:44:21.995Z,12.40
2023-03-01T16:45:54.051Z,12.63
2023-03-01T16:47:25.868Z,13.45
2023-03-01T16:48:57.729Z,13.40
2023-03-01T16:50:29.627Z,14.57
2023-03-01T16:52:01.368Z,14.07
2023-03-01T16:53:33.289Z,14.15
2023-03-01T16:55:07.752Z,12.98
2023-03-01T16:56:40.697Z,13.07
2023-03-01T16:58:12.455Z,13.25
2023-03-01T16:59:44.354Z,14.82
2023-03-01T17:01:18.612Z,15.82
2023-03-01T17:02:50.492Z,13.73
2023-03-01T17:04:22.390Z,14.05
2023-03-01T17:05:54.306Z,13.35
2023-03-01T17:07:26.242Z,13.77
2023-03-01T17:08:58.388Z,13.43
2023-03-01T17:10:30.151Z,15.88
2023-03-01T17:12:01.997Z,14.68
2023-03-01T17:13:33.800Z,13.75
2023-03-01T17:15:06.689Z,14.35
2023-03-01T17:16:38.632Z,14.52
2023-03-01T17:18:10.552Z,14.63
2023-03-01T17:19:44.508Z,15.38
2023-03-01T17:21:16.384Z,17.00
2023-03-01T17:22:48.130Z,16.15
2023-03-01T17:24:19.978Z,18.77
2023-03-01T17:25:52.835Z,18.85
2023-03-01T17:27:25.434Z,15.90
2023-03-01T17:29:01.610Z,19.35
2023-03-01T17:30:33.345Z,15.70
2023-03-01T17:32:05.422Z,16.08
2023-03-01T17:33:37.267Z,16.65
2023-03-01T17:35:12.037Z,15.85
2023-03-01T17:36:44.294Z,16.45
2023-03-01T17:38:17.025Z,18.33
2023-03-01T17:39:48.718Z,17.17
2023-03-01T17:41:21.974Z,14.88
2023-03-01T17:42:53.707Z,18.52
2023-03-01T17:44:25.599Z,17.88
2023-03-01T17:45:58.021Z,18.33
2023-03-01T17:47:29.787Z,18.38
2023-03-01T17:49:04.501Z,20.75
2023-03-01T17:50:39.055Z,18.30
2023-03-01T17:52:10.792Z,19.02
2023-03-01T17:53:42.942Z,20.65
2023-03-01T17:55:14.652Z,16.65
2023-03-01T17:56:46.639Z,19.10
2023-03-01T17:58:22.816Z,17.92
2023-03-01T17:59:54.653Z,17.00
2023-03-01T18:01:26.589Z,20.45
2023-03-01T18:02:58.747Z,22.75
2023-03-01T18:04:30.672Z,26.65
2023-03-01T18:06:02.752Z,26.38
2023-03-01T18:07:34.929Z,29.05
2023-03-01T18:09:07.675Z,30.20
2023-03-01T18:10:40.241Z,25.02
2023-03-01T18:12:12.112Z,25.63
2023-03-01T18:13:44.835Z,20.67
2023-03-01T18:15:18.635Z,23.20
2023-03-01T18:16:51.819Z,20.48
2023-03-01T18:18:24.012Z,19.38
2023-03-01T18:19:56.809Z,21.13
2023-03-01T18:21:30.604Z,19.20
2023-03-01T18:23:02.588Z,21.13
2023-03-01T18:24:35.563Z,20.33
2023-03-01T18:26:13.100Z,24.45
2023-03-01T18:27:44.847Z,19.70
2023-03-01T18:29:16.586Z,22.15
2023-03-01T18:30:48.398Z,19.55
2023-03-01T18:32:20.294Z,16.92
2023-03-01T18:33:55.098Z,15.95
2023-03-01T18:35:26.954Z,16.77
2023-03-01T18:37:09.234Z,18.08
2023-03-01T18:38:41.564Z,18.35
2023-03-01T18:40:14.099Z,17.80
2023-03-01T18:41:45.852Z,18.15
2023-03-01T18:43:17.576Z,19.20
2023-03-01T18:44:49.571Z,20.77
2023-03-01T18:46:22.160Z,16.80
2023-03-01T18:47:54.042Z,17.05
2023-03-01T18:49:29.233Z,16.33
2023-03-01T18:51:09.191Z,20.25
2023-03-01T18:52:41.010Z,19.17
2023-03-01T18:54:13.188Z,18.45
2023-03-01T18:55:44.894Z,16.58
2023-03-01T18:57:16.641Z,16.00
2023-03-01T18:58:48.356Z,16.30
2023-03-01T19:00:20.594Z,17.52
2023-03-01T19:01:52.683Z,16.75
2023-03-01T19:03:24.849Z,17.92
2023-03-01T19:04:56.745Z,19.00
2023-03-01T19:06:32.189Z,18.85
2023-03-01T19:08:04.315Z,16.23
2023-03-01T19:09:36.055Z,15.10
2023-03-01T19:11:08.344Z,13.40
2023-03-01T19:12:40.183Z,12.18
2023-03-01T19:14:11.984Z,13.75
2023-03-01T19:15:43.800Z,16.10
2023-03-01T19:17:16.051Z,15.52
2023-03-01T19:18:51.737Z,16.40
2023-03-01T19:20:23.591Z,15.13
2023-03-01T19:22:05.052Z,14.55
2023-03-01T19:23:40.921Z,17.98
2023-03-01T19:25:12.843Z,17.30
2023-03-01T19:26:44.788Z,16.42
2023-03-01T19:28:16.806Z,19.05
2023-03-01T19:29:48.524Z,20.02
2023-03-01T19:31:24.283Z,15.73
2023-03-01T19:32:56.047Z,15.27
2023-03-01T19:34:28.008Z,15.50
2023-03-01T19:36:00.774Z,17.60
2023-03-01T19:37:35.362Z,15.50
2023-03-01T19:39:08.422Z,15.07
2023-03-01T19:40:40.370Z,15.93
2023-03-01T19:42:12.309Z,17.27
2023-03-01T19:43:45.904Z,14.43
2023-03-01T19:45:22.388Z,17.83
2023-03-01T19:46:59.169Z,16.10
2023-03-01T19:48:30.897Z,14.82
2023-03-01T19:50:02.861Z,17.35
2023-03-01T19:51:36.863Z,18.83
2023-03-01T19:53:11.474Z,16.15
2023-03-01T19:54:43.405Z,14.98
2023-03-01T19:56:15.228Z,16.85
2023-03-01T19:57:47.194Z,15.07
2023-03-01T19:59:24.382Z,14.77
2023-03-01T20:01:00.878Z,12.68
2023-03-01T20:02:32.720Z,14.70
2023-03-01T20:04:04.905Z,17.10
2023-03-01T20:05:37.747Z,13.50
2023-03-01T20:07:09.711Z,13.27
2023-03-01T20:08:41.744Z,13.52
2023-03-01T20:10:13.709Z,13.45
2023-03-01T20:11:45.431Z,14.35
2023-03-01T20:13:21.131Z,15.00
2023-03-01T20:14:55.524Z,16.73
2023-03-01T20:16:27.427Z,14.40
2023-03-01T20:17:59.370Z,13.75
2023-03-01T20:19:31.313Z,13.45
2023-03-01T20:21:05.441Z,14.02
2023-03-01T20:22:39.593Z,14.25
2023-03-01T20:24:11.545Z,13.32
2023-03-01T20:25:43.246Z,15.43
2023-03-01T20:27:15.301Z,15.45
2023-03-01T20:28:49.191Z,12.60
2023-03-01T20:30:21.005Z,14.18
2023-03-01T20:31:53.174Z,13.85
2023-03-01T20:33:25.599Z,13.15
2023-03-01T20:34:57.305Z,12.80
2023-03-01T20:36:29.250Z,12.85
2023-03-01T20:38:02.005Z,13.23
2023-03-01T20:39:33.732Z,14.75
2023-03-01T20:41:08.294Z,13.30
2023-03-01T20:42:40.128Z,11.60
2023-03-01T20:44:12.032Z,11.98
2023-03-01T20:45:43.736Z,13.52
2023-03-01T20:47:15.624Z,12.20